Vanport, Pennsylvania
Current Conditions -  °F | °C
As of 3:16 PM on Monday 26 Jan 2015 (Local Time) from KPIT Reporting Station
Light Snow Light Snow  
Wind Chill: 16°   Ceiling: 1100
Heat Index: 26°   Visibility: 5mi
Dew Point: 22°   Wind: 12mph
Humidity: 84%   Direction: 330°NNW
Pressure: 29.7"   Gusts: NA
Location:  40.7011°N, 80.3605°W
Report Text: KPIT 262016Z 33010KT 5SM -SN BKN011 OVC023 M03/M06 A2970 RMK AO2 VIS LWR E-SE P0000 T10331056
Loading
Personal Weather Stations






























Interactive Weather Map New forecast layout! Learn more

10-Day Weather Forecast

Advertisements
Track Severe Weather on mobile